sensor_id;sensor_type;location;lat;lon;timestamp;temperature;humidity
55091;DHT22;40985;53.180;5.800;2022-09-27T00:00:24;9.40;99.90
55091;DHT22;40985;53.180;5.800;2022-09-27T00:02:50;9.40;99.90
55091;DHT22;40985;53.180;5.800;2022-09-27T00:05:16;9.40;99.90
55091;DHT22;40985;53.180;5.800;2022-09-27T00:07:43;9.40;99.90
55091;DHT22;40985;53.180;5.800;2022-09-27T00:10:09;9.40;99.90
55091;DHT22;40985;53.180;5.800;2022-09-27T00:12:35;9.30;99.90
55091;DHT22;40985;53.180;5.800;2022-09-27T00:15:02;9.30;99.90
55091;DHT22;40985;53.180;5.800;2022-09-27T00:17:28;9.20;99.90
55091;DHT22;40985;53.180;5.800;2022-09-27T00:19:54;9.20;99.90
55091;DHT22;40985;53.180;5.800;2022-09-27T00:22:22;9.40;99.90
55091;DHT22;40985;53.180;5.800;2022-09-27T00:24:48;9.40;99.90
55091;DHT22;40985;53.180;5.800;2022-09-27T00:27:14;9.40;99.90
55091;DHT22;40985;53.180;5.800;2022-09-27T00:29:40;9.40;99.90
55091;DHT22;40985;53.180;5.800;2022-09-27T00:32:05;9.40;99.90
55091;DHT22;40985;53.180;5.800;2022-09-27T00:34:31;9.50;99.90
55091;DHT22;40985;53.180;5.800;2022-09-27T00:36:57;9.50;99.90
55091;DHT22;40985;53.180;5.800;2022-09-27T00:39:22;9.50;99.90
55091;DHT22;40985;53.180;5.800;2022-09-27T00:41:48;9.50;99.90
55091;DHT22;40985;53.180;5.800;2022-09-27T00:47:01;9.40;99.90
55091;DHT22;40985;53.180;5.800;2022-09-27T00:49:35;9.40;99.90
55091;DHT22;40985;53.180;5.800;2022-09-27T00:52:26;9.40;99.90
55091;DHT22;40985;53.180;5.800;2022-09-27T00:55:00;9.40;99.90
55091;DHT22;40985;53.180;5.800;2022-09-27T00:57:27;9.40;99.90
55091;DHT22;40985;53.180;5.800;2022-09-27T01:00:04;9.40;99.90
55091;DHT22;40985;53.180;5.800;2022-09-27T01:02:30;9.40;99.90
55091;DHT22;40985;53.180;5.800;2022-09-27T01:04:57;9.40;99.90
55091;DHT22;40985;53.180;5.800;2022-09-27T01:07:24;9.50;99.90
55091;DHT22;40985;53.180;5.800;2022-09-27T01:09:49;9.50;99.90
55091;DHT22;40985;53.180;5.800;2022-09-27T01:15:52;9.50;99.90
55091;DHT22;40985;53.180;5.800;2022-09-27T01:18:34;9.50;99.90
55091;DHT22;40985;53.180;5.800;2022-09-27T01:32:02;9.40;99.90
55091;DHT22;40985;53.180;5.800;2022-09-27T01:34:54;9.40;99.90
55091;DHT22;40985;53.180;5.800;2022-09-27T01:47:43;9.30;99.90
55091;DHT22;40985;53.180;5.800;2022-09-27T01:50:36;9.40;99.90
55091;DHT22;40985;53.180;5.800;2022-09-27T01:53:04;9.40;99.90
55091;DHT22;40985;53.180;5.800;2022-09-27T01:55:34;9.40;99.90
55091;DHT22;40985;53.180;5.800;2022-09-27T02:00:34;9.40;99.90
55091;DHT22;40985;53.180;5.800;2022-09-27T02:03:11;9.30;99.90
55091;DHT22;40985;53.180;5.800;2022-09-27T02:05:50;9.30;99.90
55091;DHT22;40985;53.180;5.800;2022-09-27T02:10:53;9.30;99.90
55091;DHT22;40985;53.180;5.800;2022-09-27T02:13:25;9.20;99.90
55091;DHT22;40985;53.180;5.800;2022-09-27T02:16:17;9.20;99.90
55091;DHT22;40985;53.180;5.800;2022-09-27T02:19:08;9.20;99.90
55091;DHT22;40985;53.180;5.800;2022-09-27T02:21:44;9.10;99.90
55091;DHT22;40985;53.180;5.800;2022-09-27T02:24:14;9.00;99.90
55091;DHT22;40985;53.180;5.800;2022-09-27T02:26:47;9.00;99.90
55091;DHT22;40985;53.180;5.800;2022-09-27T02:29:19;9.00;99.90
55091;DHT22;40985;53.180;5.800;2022-09-27T02:31:48;8.90;99.90
55091;DHT22;40985;53.180;5.800;2022-09-27T02:34:21;8.90;99.90
55091;DHT22;40985;53.180;5.800;2022-09-27T02:36:47;8.80;99.90
55091;DHT22;40985;53.180;5.800;2022-09-27T02:39:14;8.90;99.90
55091;DHT22;40985;53.180;5.800;2022-09-27T02:41:41;8.90;99.90
55091;DHT22;40985;53.180;5.800;2022-09-27T02:44:09;8.80;99.90
55091;DHT22;40985;53.180;5.800;2022-09-27T03:01:07;8.90;99.90
55091;DHT22;40985;53.180;5.800;2022-09-27T03:03:41;8.90;99.90
55091;DHT22;40985;53.180;5.800;2022-09-27T03:06:11;8.70;99.90
55091;DHT22;40985;53.180;5.800;2022-09-27T03:08:38;8.70;99.90
55091;DHT22;40985;53.180;5.800;2022-09-27T03:11:04;8.70;99.90
55091;DHT22;40985;53.180;5.800;2022-09-27T03:13:30;8.80;99.90
55091;DHT22;40985;53.180;5.800;2022-09-27T03:15:56;8.70;99.90
55091;DHT22;40985;53.180;5.800;2022-09-27T03:18:21;8.70;99.90
55091;DHT22;40985;53.180;5.800;2022-09-27T03:20:47;8.70;99.90
55091;DHT22;40985;53.180;5.800;2022-09-27T03:23:13;8.70;99.90
55091;DHT22;40985;53.180;5.800;2022-09-27T03:25:39;8.70;99.90
55091;DHT22;40985;53.180;5.800;2022-09-27T03:28:05;8.70;99.90
55091;DHT22;40985;53.180;5.800;2022-09-27T03:30:31;8.80;99.90
55091;DHT22;40985;53.180;5.800;2022-09-27T03:32:56;8.70;99.90
55091;DHT22;40985;53.180;5.800;2022-09-27T03:35:22;8.80;99.90
55091;DHT22;40985;53.180;5.800;2022-09-27T03:37:48;8.90;99.90
55091;DHT22;40985;53.180;5.800;2022-09-27T03:40:14;8.90;99.90
55091;DHT22;40985;53.180;5.800;2022-09-27T03:42:39;8.90;99.90
55091;DHT22;40985;53.180;5.800;2022-09-27T03:45:06;8.90;99.90
55091;DHT22;40985;53.180;5.800;2022-09-27T03:47:32;8.90;99.90
55091;DHT22;40985;53.180;5.800;2022-09-27T03:49:57;8.90;99.90
55091;DHT22;40985;53.180;5.800;2022-09-27T03:52:23;9.00;99.90
55091;DHT22;40985;53.180;5.800;2022-09-27T03:54:49;9.00;99.90
55091;DHT22;40985;53.180;5.800;2022-09-27T03:57:14;9.00;99.90
55091;DHT22;40985;53.180;5.800;2022-09-27T03:59:40;9.00;99.90
55091;DHT22;40985;53.180;5.800;2022-09-27T04:02:06;9.00;99.90
55091;DHT22;40985;53.180;5.800;2022-09-27T04:04:31;9.00;99.90
55091;DHT22;40985;53.180;5.800;2022-09-27T04:06:57;8.90;99.90
55091;DHT22;40985;53.180;5.800;2022-09-27T04:09:23;8.90;99.90
55091;DHT22;40985;53.180;5.800;2022-09-27T04:11:49;8.90;99.90
55091;DHT22;40985;53.180;5.800;2022-09-27T04:14:15;8.90;99.90
55091;DHT22;40985;53.180;5.800;2022-09-27T04:16:41;8.90;99.90
55091;DHT22;40985;53.180;5.800;2022-09-27T04:19:07;8.90;99.90
55091;DHT22;40985;53.180;5.800;2022-09-27T04:21:34;9.00;99.90
55091;DHT22;40985;53.180;5.800;2022-09-27T04:24:00;9.00;99.90
55091;DHT22;40985;53.180;5.800;2022-09-27T04:26:26;9.00;99.90
55091;DHT22;40985;53.180;5.800;2022-09-27T04:28:52;9.00;99.90
55091;DHT22;40985;53.180;5.800;2022-09-27T04:31:18;9.00;99.90
55091;DHT22;40985;53.180;5.800;2022-09-27T04:33:44;8.90;99.90
55091;DHT22;40985;53.180;5.800;2022-09-27T04:36:28;8.90;99.90
55091;DHT22;40985;53.180;5.800;2022-09-27T04:38:59;8.80;99.90
55091;DHT22;40985;53.180;5.800;2022-09-27T04:41:26;8.80;99.90
55091;DHT22;40985;53.180;5.800;2022-09-27T04:43:53;8.70;99.90
55091;DHT22;40985;53.180;5.800;2022-09-27T04:46:20;8.70;99.90
55091;DHT22;40985;53.180;5.800;2022-09-27T04:48:46;8.70;99.90
55091;DHT22;40985;53.180;5.800;2022-09-27T04:51:13;8.60;99.90
55091;DHT22;40985;53.180;5.800;2022-09-27T04:53:44;8.50;99.90
55091;DHT22;40985;53.180;5.800;2022-09-27T04:56:10;8.50;99.90
55091;DHT22;40985;53.180;5.800;2022-09-27T04:58:37;8.50;99.90
55091;DHT22;40985;53.180;5.800;2022-09-27T05:01:03;8.50;99.90
55091;DHT22;40985;53.180;5.800;2022-09-27T05:03:30;8.60;99.90
55091;DHT22;40985;53.180;5.800;2022-09-27T05:05:56;8.60;99.90
55091;DHT22;40985;53.180;5.800;2022-09-27T05:08:22;8.70;99.90
55091;DHT22;40985;53.180;5.800;2022-09-27T05:10:48;8.70;99.90
55091;DHT22;40985;53.180;5.800;2022-09-27T05:13:14;8.70;99.90
55091;DHT22;40985;53.180;5.800;2022-09-27T05:15:40;8.70;99.90
55091;DHT22;40985;53.180;5.800;2022-09-27T05:18:06;8.70;99.90
55091;DHT22;40985;53.180;5.800;2022-09-27T05:20:34;8.70;99.90
55091;DHT22;40985;53.180;5.800;2022-09-27T05:23:00;8.70;99.90
55091;DHT22;40985;53.180;5.800;2022-09-27T05:25:27;8.70;99.90
55091;DHT22;40985;53.180;5.800;2022-09-27T05:27:53;8.70;99.90
55091;DHT22;40985;53.180;5.800;2022-09-27T05:30:19;8.70;99.90
55091;DHT22;40985;53.180;5.800;2022-09-27T05:32:45;8.70;99.90
55091;DHT22;40985;53.180;5.800;2022-09-27T05:35:15;8.70;99.90
55091;DHT22;40985;53.180;5.800;2022-09-27T05:37:42;8.60;99.90
55091;DHT22;40985;53.180;5.800;2022-09-27T05:40:08;8.60;99.90
55091;DHT22;40985;53.180;5.800;2022-09-27T05:42:34;8.60;99.90
55091;DHT22;40985;53.180;5.800;2022-09-27T05:45:02;8.60;99.90
55091;DHT22;40985;53.180;5.800;2022-09-27T05:47:27;8.60;99.90
55091;DHT22;40985;53.180;5.800;2022-09-27T05:49:53;8.60;99.90
55091;DHT22;40985;53.180;5.800;2022-09-27T05:52:20;8.60;99.90
55091;DHT22;40985;53.180;5.800;2022-09-27T05:54:45;8.70;99.90
55091;DHT22;40985;53.180;5.800;2022-09-27T05:57:11;8.70;99.90
55091;DHT22;40985;53.180;5.800;2022-09-27T05:59:37;8.70;99.90
55091;DHT22;40985;53.180;5.800;2022-09-27T06:02:02;8.70;99.90
55091;DHT22;40985;53.180;5.800;2022-09-27T06:04:28;8.70;99.90
55091;DHT22;40985;53.180;5.800;2022-09-27T06:06:53;8.60;99.90
55091;DHT22;40985;53.180;5.800;2022-09-27T06:09:19;8.60;99.90
55091;DHT22;40985;53.180;5.800;2022-09-27T06:11:45;8.60;99.90
55091;DHT22;40985;53.180;5.800;2022-09-27T06:14:14;8.60;99.90
55091;DHT22;40985;53.180;5.800;2022-09-27T06:16:39;8.60;99.90
55091;DHT22;40985;53.180;5.800;2022-09-27T06:19:05;8.70;99.90
55091;DHT22;40985;53.180;5.800;2022-09-27T06:21:31;8.60;99.90
55091;DHT22;40985;53.180;5.800;2022-09-27T06:23:57;8.80;99.90
55091;DHT22;40985;53.180;5.800;2022-09-27T06:26:25;8.70;99.90
55091;DHT22;40985;53.180;5.800;2022-09-27T06:28:54;8.80;99.90
55091;DHT22;40985;53.180;5.800;2022-09-27T06:31:19;8.80;99.90
55091;DHT22;40985;53.180;5.800;2022-09-27T06:33:47;8.90;99.90
55091;DHT22;40985;53.180;5.800;2022-09-27T06:36:13;8.90;99.90
55091;DHT22;40985;53.180;5.800;2022-09-27T06:38:39;9.00;99.90
55091;DHT22;40985;53.180;5.800;2022-09-27T06:41:05;9.00;99.90
55091;DHT22;40985;53.180;5.800;2022-09-27T06:43:32;9.00;99.90
55091;DHT22;40985;53.180;5.800;2022-09-27T06:46:02;9.10;99.90
55091;DHT22;40985;53.180;5.800;2022-09-27T06:48:32;9.10;99.90
55091;DHT22;40985;53.180;5.800;2022-09-27T06:50:58;9.20;99.90
55091;DHT22;40985;53.180;5.800;2022-09-27T06:53:24;9.20;99.90
55091;DHT22;40985;53.180;5.800;2022-09-27T06:55:50;9.20;99.90
55091;DHT22;40985;53.180;5.800;2022-09-27T06:58:17;9.20;99.90
55091;DHT22;40985;53.180;5.800;2022-09-27T07:01:02;9.30;99.90
55091;DHT22;40985;53.180;5.800;2022-09-27T07:03:28;9.40;99.90
55091;DHT22;40985;53.180;5.800;2022-09-27T07:06:02;9.30;99.90
55091;DHT22;40985;53.180;5.800;2022-09-27T07:08:29;9.40;99.90
55091;DHT22;40985;53.180;5.800;2022-09-27T07:11:00;9.40;99.90
55091;DHT22;40985;53.180;5.800;2022-09-27T07:13:27;9.50;99.90
55091;DHT22;40985;53.180;5.800;2022-09-27T07:15:57;9.40;99.90
55091;DHT22;40985;53.180;5.800;2022-09-27T07:18:23;9.40;99.90
55091;DHT22;40985;53.180;5.800;2022-09-27T07:20:49;9.50;99.90
55091;DHT22;40985;53.180;5.800;2022-09-27T07:23:15;9.50;99.90
55091;DHT22;40985;53.180;5.800;2022-09-27T07:25:41;9.50;99.90
55091;DHT22;40985;53.180;5.800;2022-09-27T07:28:13;9.50;99.90
55091;DHT22;40985;53.180;5.800;2022-09-27T07:30:40;9.50;99.90
55091;DHT22;40985;53.180;5.800;2022-09-27T07:33:06;9.60;99.90
55091;DHT22;40985;53.180;5.800;2022-09-27T07:35:33;9.60;99.90
55091;DHT22;40985;53.180;5.800;2022-09-27T07:38:05;9.70;99.90
55091;DHT22;40985;53.180;5.800;2022-09-27T07:40:34;9.70;99.90
55091;DHT22;40985;53.180;5.800;2022-09-27T07:43:00;9.70;99.90
55091;DHT22;40985;53.180;5.800;2022-09-27T07:45:27;9.80;99.90
55091;DHT22;40985;53.180;5.800;2022-09-27T07:47:53;9.90;99.90
55091;DHT22;40985;53.180;5.800;2022-09-27T07:50:19;10.00;99.90
55091;DHT22;40985;53.180;5.800;2022-09-27T07:52:47;10.10;99.90
55091;DHT22;40985;53.180;5.800;2022-09-27T07:55:14;10.00;99.90
55091;DHT22;40985;53.180;5.800;2022-09-27T07:57:40;10.00;99.90
55091;DHT22;40985;53.180;5.800;2022-09-27T08:00:09;9.80;99.90
55091;DHT22;40985;53.180;5.800;2022-09-27T08:02:35;9.80;99.90
55091;DHT22;40985;53.180;5.800;2022-09-27T08:05:01;9.80;99.90
55091;DHT22;40985;53.180;5.800;2022-09-27T08:07:27;9.70;99.90
55091;DHT22;40985;53.180;5.800;2022-09-27T08:09:53;9.70;99.90
55091;DHT22;40985;53.180;5.800;2022-09-27T08:12:19;9.70;99.90
55091;DHT22;40985;53.180;5.800;2022-09-27T08:14:48;9.70;99.90
55091;DHT22;40985;53.180;5.800;2022-09-27T08:17:15;9.80;99.90
55091;DHT22;40985;53.180;5.800;2022-09-27T08:19:41;9.80;99.90
55091;DHT22;40985;53.180;5.800;2022-09-27T08:22:09;9.90;99.90
55091;DHT22;40985;53.180;5.800;2022-09-27T08:24:37;9.90;99.90
55091;DHT22;40985;53.180;5.800;2022-09-27T08:27:02;10.00;99.90
55091;DHT22;40985;53.180;5.800;2022-09-27T08:29:30;10.00;99.90
55091;DHT22;40985;53.180;5.800;2022-09-27T08:31:56;10.00;99.90
55091;DHT22;40985;53.180;5.800;2022-09-27T08:34:22;10.10;99.90
55091;DHT22;40985;53.180;5.800;2022-09-27T08:36:48;10.20;99.90
55091;DHT22;40985;53.180;5.800;2022-09-27T08:39:13;10.30;99.90
55091;DHT22;40985;53.180;5.800;2022-09-27T08:47:15;10.40;99.90
55091;DHT22;40985;53.180;5.800;2022-09-27T08:50:01;10.40;99.90
55091;DHT22;40985;53.180;5.800;2022-09-27T08:52:37;10.30;99.90
55091;DHT22;40985;53.180;5.800;2022-09-27T08:55:16;10.30;99.90
55091;DHT22;40985;53.180;5.800;2022-09-27T08:57:49;10.20;99.90
55091;DHT22;40985;53.180;5.800;2022-09-27T09:00:17;10.10;99.90
55091;DHT22;40985;53.180;5.800;2022-09-27T09:02:43;10.20;99.90
55091;DHT22;40985;53.180;5.800;2022-09-27T09:05:23;10.30;99.90
55091;DHT22;40985;53.180;5.800;2022-09-27T09:11:03;10.50;99.90
55091;DHT22;40985;53.180;5.800;2022-09-27T09:23:06;10.90;99.90
55091;DHT22;40985;53.180;5.800;2022-09-27T09:33:49;11.20;99.90
55091;DHT22;40985;53.180;5.800;2022-09-27T09:41:41;11.40;99.90
55091;DHT22;40985;53.180;5.800;2022-09-27T09:46:50;11.10;99.90
55091;DHT22;40985;53.180;5.800;2022-09-27T09:49:30;11.10;99.90
55091;DHT22;40985;53.180;5.800;2022-09-27T09:52:10;10.90;99.90
55091;DHT22;40985;53.180;5.800;2022-09-27T09:59:42;10.60;99.90
55091;DHT22;40985;53.180;5.800;2022-09-27T10:02:20;10.40;99.90
55091;DHT22;40985;53.180;5.800;2022-09-27T10:04:48;10.40;99.90
55091;DHT22;40985;53.180;5.800;2022-09-27T10:07:15;10.50;99.90
55091;DHT22;40985;53.180;5.800;2022-09-27T10:09:43;10.60;99.90
55091;DHT22;40985;53.180;5.800;2022-09-27T10:12:09;10.60;99.90
55091;DHT22;40985;53.180;5.800;2022-09-27T10:14:35;10.70;99.90
55091;DHT22;40985;53.180;5.800;2022-09-27T10:17:05;10.80;99.90
55091;DHT22;40985;53.180;5.800;2022-09-27T10:19:35;10.80;99.90
55091;DHT22;40985;53.180;5.800;2022-09-27T10:22:18;10.90;99.90
55091;DHT22;40985;53.180;5.800;2022-09-27T10:24:59;11.10;99.90
55091;DHT22;40985;53.180;5.800;2022-09-27T10:27:41;11.00;99.90
55091;DHT22;40985;53.180;5.800;2022-09-27T10:32:50;11.10;99.90
55091;DHT22;40985;53.180;5.800;2022-09-27T10:37:46;11.00;99.90
55091;DHT22;40985;53.180;5.800;2022-09-27T10:40:29;11.00;99.90
55091;DHT22;40985;53.180;5.800;2022-09-27T10:42:55;10.90;99.90
55091;DHT22;40985;53.180;5.800;2022-09-27T10:47:53;10.80;99.90
55091;DHT22;40985;53.180;5.800;2022-09-27T10:50:25;10.80;99.90
55091;DHT22;40985;53.180;5.800;2022-09-27T10:53:11;10.90;99.90
55091;DHT22;40985;53.180;5.800;2022-09-27T10:55:38;11.00;99.90
55091;DHT22;40985;53.180;5.800;2022-09-27T10:58:05;11.10;99.90
55091;DHT22;40985;53.180;5.800;2022-09-27T11:00:33;11.20;99.90
55091;DHT22;40985;53.180;5.800;2022-09-27T11:03:07;11.20;99.90
55091;DHT22;40985;53.180;5.800;2022-09-27T11:05:37;11.40;99.90
55091;DHT22;40985;53.180;5.800;2022-09-27T11:13:33;11.30;99.90
55091;DHT22;40985;53.180;5.800;2022-09-27T11:16:40;11.40;99.90
55091;DHT22;40985;53.180;5.800;2022-09-27T11:28:21;11.50;99.90
55091;DHT22;40985;53.180;5.800;2022-09-27T11:38:31;11.60;99.90
55091;DHT22;40985;53.180;5.800;2022-09-27T11:41:36;11.70;99.90
55091;DHT22;40985;53.180;5.800;2022-09-27T11:46:35;11.80;99.90
55091;DHT22;40985;53.180;5.800;2022-09-27T11:50:23;12.00;99.90
55091;DHT22;40985;53.180;5.800;2022-09-27T12:00:29;12.20;99.90
55091;DHT22;40985;53.180;5.800;2022-09-27T12:03:29;12.30;99.90
55091;DHT22;40985;53.180;5.800;2022-09-27T12:06:16;12.20;99.90
55091;DHT22;40985;53.180;5.800;2022-09-27T12:11:45;12.00;99.90
55091;DHT22;40985;53.180;5.800;2022-09-27T12:16:51;11.20;99.90
55091;DHT22;40985;53.180;5.800;2022-09-27T12:19:22;10.80;99.90
55091;DHT22;40985;53.180;5.800;2022-09-27T12:21:49;10.60;99.90
55091;DHT22;40985;53.180;5.800;2022-09-27T12:24:20;10.50;99.90
55091;DHT22;40985;53.180;5.800;2022-09-27T12:26:52;10.70;99.90
55091;DHT22;40985;53.180;5.800;2022-09-27T12:29:35;10.80;99.90
55091;DHT22;40985;53.180;5.800;2022-09-27T12:32:24;11.00;99.90
55091;DHT22;40985;53.180;5.800;2022-09-27T12:37:49;10.70;99.90
55091;DHT22;40985;53.180;5.800;2022-09-27T12:40:33;10.60;99.90
55091;DHT22;40985;53.180;5.800;2022-09-27T12:43:24;10.20;99.90
55091;DHT22;40985;53.180;5.800;2022-09-27T12:51:20;9.30;99.90
55091;DHT22;40985;53.180;5.800;2022-09-27T12:54:04;9.20;99.90
55091;DHT22;40985;53.180;5.800;2022-09-27T13:05:25;9.10;99.90
55091;DHT22;40985;53.180;5.800;2022-09-27T13:13:13;9.30;99.90
55091;DHT22;40985;53.180;5.800;2022-09-27T13:15:43;9.50;99.90
55091;DHT22;40985;53.180;5.800;2022-09-27T13:20:55;9.80;99.90
55091;DHT22;40985;53.180;5.800;2022-09-27T13:25:52;10.10;99.90
55091;DHT22;40985;53.180;5.800;2022-09-27T13:31:08;10.20;99.90
55091;DHT22;40985;53.180;5.800;2022-09-27T13:33:50;10.20;99.90
55091;DHT22;40985;53.180;5.800;2022-09-27T13:36:37;10.20;99.90
55091;DHT22;40985;53.180;5.800;2022-09-27T13:47:19;10.40;99.90
55091;DHT22;40985;53.180;5.800;2022-09-27T13:49:51;10.50;99.90
55091;DHT22;40985;53.180;5.800;2022-09-27T13:54:55;10.50;99.90
55091;DHT22;40985;53.180;5.800;2022-09-27T14:00:05;10.60;99.90
55091;DHT22;40985;53.180;5.800;2022-09-27T14:02:45;10.80;99.90
55091;DHT22;40985;53.180;5.800;2022-09-27T14:05:19;10.80;99.90
55091;DHT22;40985;53.180;5.800;2022-09-27T14:07:48;10.90;99.90
55091;DHT22;40985;53.180;5.800;2022-09-27T14:10:17;11.00;99.90
55091;DHT22;40985;53.180;5.800;2022-09-27T14:12:47;11.00;99.90
55091;DHT22;40985;53.180;5.800;2022-09-27T14:15:20;11.00;99.90
55091;DHT22;40985;53.180;5.800;2022-09-27T14:17:47;11.10;99.90
55091;DHT22;40985;53.180;5.800;2022-09-27T14:20:38;11.00;99.90
55091;DHT22;40985;53.180;5.800;2022-09-27T14:23:11;11.00;99.90
55091;DHT22;40985;53.180;5.800;2022-09-27T14:25:44;11.00;99.90
55091;DHT22;40985;53.180;5.800;2022-09-27T14:28:26;10.90;99.90
55091;DHT22;40985;53.180;5.800;2022-09-27T14:31:15;11.00;99.90
55091;DHT22;40985;53.180;5.800;2022-09-27T14:33:43;10.90;99.90
55091;DHT22;40985;53.180;5.800;2022-09-27T14:39:20;11.00;99.90
55091;DHT22;40985;53.180;5.800;2022-09-27T14:41:47;11.00;99.90
55091;DHT22;40985;53.180;5.800;2022-09-27T14:44:15;11.10;99.90
55091;DHT22;40985;53.180;5.800;2022-09-27T14:46:41;11.10;99.90
55091;DHT22;40985;53.180;5.800;2022-09-27T14:49:18;11.10;99.90
55091;DHT22;40985;53.180;5.800;2022-09-27T14:51:52;11.00;99.90
55091;DHT22;40985;53.180;5.800;2022-09-27T14:54:24;11.10;99.90
55091;DHT22;40985;53.180;5.800;2022-09-27T14:56:52;11.10;99.90
55091;DHT22;40985;53.180;5.800;2022-09-27T15:01:56;11.20;99.90
55091;DHT22;40985;53.180;5.800;2022-09-27T15:04:26;11.20;99.90
55091;DHT22;40985;53.180;5.800;2022-09-27T15:06:54;11.20;99.90
55091;DHT22;40985;53.180;5.800;2022-09-27T15:09:20;11.20;99.90
55091;DHT22;40985;53.180;5.800;2022-09-27T15:11:51;11.20;99.90
55091;DHT22;40985;53.180;5.800;2022-09-27T15:14:20;11.20;99.90
55091;DHT22;40985;53.180;5.800;2022-09-27T15:16:49;11.20;99.90
55091;DHT22;40985;53.180;5.800;2022-09-27T15:21:46;11.00;99.90
55091;DHT22;40985;53.180;5.800;2022-09-27T15:24:34;10.90;99.90
55091;DHT22;40985;53.180;5.800;2022-09-27T15:27:00;10.90;99.90
55091;DHT22;40985;53.180;5.800;2022-09-27T15:29:26;10.80;99.90
55091;DHT22;40985;53.180;5.800;2022-09-27T15:32:02;10.70;99.90
55091;DHT22;40985;53.180;5.800;2022-09-27T15:34:28;10.60;99.90
55091;DHT22;40985;53.180;5.800;2022-09-27T15:37:04;10.50;99.90
55091;DHT22;40985;53.180;5.800;2022-09-27T15:39:36;10.30;99.90
55091;DHT22;40985;53.180;5.800;2022-09-27T15:42:05;10.20;99.90
55091;DHT22;40985;53.180;5.800;2022-09-27T15:44:44;10.00;99.90
55091;DHT22;40985;53.180;5.800;2022-09-27T15:52:43;9.60;99.90
55091;DHT22;40985;53.180;5.800;2022-09-27T15:55:13;9.40;99.90
55091;DHT22;40985;53.180;5.800;2022-09-27T15:57:39;9.40;99.90
55091;DHT22;40985;53.180;5.800;2022-09-27T16:00:09;9.30;99.90
55091;DHT22;40985;53.180;5.800;2022-09-27T16:02:36;9.20;99.90
55091;DHT22;40985;53.180;5.800;2022-09-27T16:05:02;9.00;99.90
55091;DHT22;40985;53.180;5.800;2022-09-27T16:07:28;9.00;99.90
55091;DHT22;40985;53.180;5.800;2022-09-27T16:09:53;9.00;99.90
55091;DHT22;40985;53.180;5.800;2022-09-27T16:12:21;8.90;99.90
55091;DHT22;40985;53.180;5.800;2022-09-27T16:14:46;8.90;99.90
55091;DHT22;40985;53.180;5.800;2022-09-27T16:17:13;8.80;99.90
55091;DHT22;40985;53.180;5.800;2022-09-27T16:19:39;8.90;99.90
55091;DHT22;40985;53.180;5.800;2022-09-27T16:22:04;8.80;99.90
55091;DHT22;40985;53.180;5.800;2022-09-27T16:24:31;8.80;99.90
55091;DHT22;40985;53.180;5.800;2022-09-27T16:26:57;8.80;99.90
55091;DHT22;40985;53.180;5.800;2022-09-27T16:29:23;8.70;99.90
55091;DHT22;40985;53.180;5.800;2022-09-27T16:31:49;8.70;99.90
55091;DHT22;40985;53.180;5.800;2022-09-27T16:34:15;8.70;99.90
55091;DHT22;40985;53.180;5.800;2022-09-27T16:36:41;8.70;99.90
55091;DHT22;40985;53.180;5.800;2022-09-27T16:39:10;8.70;99.90
55091;DHT22;40985;53.180;5.800;2022-09-27T16:41:37;8.50;99.90
55091;DHT22;40985;53.180;5.800;2022-09-27T16:44:15;8.60;99.90
55091;DHT22;40985;53.180;5.800;2022-09-27T16:46:43;8.50;99.90
55091;DHT22;40985;53.180;5.800;2022-09-27T16:49:12;8.50;99.90
55091;DHT22;40985;53.180;5.800;2022-09-27T16:51:56;8.50;99.90
55091;DHT22;40985;53.180;5.800;2022-09-27T16:54:29;8.40;99.90
55091;DHT22;40985;53.180;5.800;2022-09-27T16:56:58;8.40;99.90
55091;DHT22;40985;53.180;5.800;2022-09-27T16:59:24;8.40;99.90
55091;DHT22;40985;53.180;5.800;2022-09-27T17:01:50;8.40;99.90
55091;DHT22;40985;53.180;5.800;2022-09-27T17:04:16;8.40;99.90
55091;DHT22;40985;53.180;5.800;2022-09-27T17:06:42;8.40;99.90
55091;DHT22;40985;53.180;5.800;2022-09-27T17:09:08;8.40;99.90
55091;DHT22;40985;53.180;5.800;2022-09-27T17:11:33;8.40;99.90
55091;DHT22;40985;53.180;5.800;2022-09-27T17:13:59;8.40;99.90
55091;DHT22;40985;53.180;5.800;2022-09-27T17:16:25;8.30;99.90
55091;DHT22;40985;53.180;5.800;2022-09-27T17:18:52;8.30;99.90
55091;DHT22;40985;53.180;5.800;2022-09-27T17:21:18;8.30;99.90
55091;DHT22;40985;53.180;5.800;2022-09-27T17:23:44;8.30;99.90
55091;DHT22;40985;53.180;5.800;2022-09-27T17:26:20;8.40;99.90
55091;DHT22;40985;53.180;5.800;2022-09-27T17:28:47;8.30;99.90
55091;DHT22;40985;53.180;5.800;2022-09-27T17:31:15;8.40;99.90
55091;DHT22;40985;53.180;5.800;2022-09-27T17:33:46;8.40;99.90
55091;DHT22;40985;53.180;5.800;2022-09-27T17:36:15;8.30;99.90
55091;DHT22;40985;53.180;5.800;2022-09-27T17:38:42;8.30;99.90
55091;DHT22;40985;53.180;5.800;2022-09-27T17:41:11;8.40;99.90
55091;DHT22;40985;53.180;5.800;2022-09-27T17:43:38;8.40;99.90
55091;DHT22;40985;53.180;5.800;2022-09-27T17:46:11;8.40;99.90
55091;DHT22;40985;53.180;5.800;2022-09-27T17:48:36;8.40;99.90
55091;DHT22;40985;53.180;5.800;2022-09-27T17:51:21;8.40;99.90
55091;DHT22;40985;53.180;5.800;2022-09-27T17:53:47;8.40;99.90
55091;DHT22;40985;53.180;5.800;2022-09-27T17:56:14;8.30;99.90
55091;DHT22;40985;53.180;5.800;2022-09-27T17:58:51;8.40;99.90
55091;DHT22;40985;53.180;5.800;2022-09-27T18:01:18;8.30;99.90
55091;DHT22;40985;53.180;5.800;2022-09-27T18:03:44;8.30;99.90
55091;DHT22;40985;53.180;5.800;2022-09-27T18:06:12;8.30;99.90
55091;DHT22;40985;53.180;5.800;2022-09-27T18:08:39;8.30;99.90
55091;DHT22;40985;53.180;5.800;2022-09-27T18:11:09;8.30;99.90
55091;DHT22;40985;53.180;5.800;2022-09-27T18:13:36;8.30;99.90
55091;DHT22;40985;53.180;5.800;2022-09-27T18:16:09;8.30;99.90
55091;DHT22;40985;53.180;5.800;2022-09-27T18:18:36;8.20;99.90
55091;DHT22;40985;53.180;5.800;2022-09-27T18:21:10;8.30;99.90
55091;DHT22;40985;53.180;5.800;2022-09-27T18:23:36;8.30;99.90
55091;DHT22;40985;53.180;5.800;2022-09-27T18:26:03;8.30;99.90
55091;DHT22;40985;53.180;5.800;2022-09-27T18:28:36;8.30;99.90
55091;DHT22;40985;53.180;5.800;2022-09-27T18:31:08;8.30;99.90
55091;DHT22;40985;53.180;5.800;2022-09-27T18:33:35;8.30;99.90
55091;DHT22;40985;53.180;5.800;2022-09-27T18:36:05;8.20;99.90
55091;DHT22;40985;53.180;5.800;2022-09-27T18:38:32;8.20;99.90
55091;DHT22;40985;53.180;5.800;2022-09-27T18:41:12;8.20;99.90
55091;DHT22;40985;53.180;5.800;2022-09-27T18:43:39;8.30;99.90
55091;DHT22;40985;53.180;5.800;2022-09-27T18:46:07;8.20;99.90
55091;DHT22;40985;53.180;5.800;2022-09-27T18:48:35;8.20;99.90
55091;DHT22;40985;53.180;5.800;2022-09-27T18:51:15;8.20;99.90
55091;DHT22;40985;53.180;5.800;2022-09-27T18:53:42;8.20;99.90
55091;DHT22;40985;53.180;5.800;2022-09-27T18:56:13;8.30;99.90
55091;DHT22;40985;53.180;5.800;2022-09-27T18:58:40;8.30;99.90
55091;DHT22;40985;53.180;5.800;2022-09-27T19:01:08;8.30;99.90
55091;DHT22;40985;53.180;5.800;2022-09-27T19:03:35;8.20;99.90
55091;DHT22;40985;53.180;5.800;2022-09-27T19:06:03;8.30;99.90
55091;DHT22;40985;53.180;5.800;2022-09-27T19:08:30;8.20;99.90